createdAt,value
2018-09-21T00:00:04.797Z,987.35
2018-09-21T00:01:05.028Z,987.34
2018-09-21T00:02:05.257Z,987.33
2018-09-21T00:03:05.487Z,987.32
2018-09-21T00:04:05.718Z,987.30
2018-09-21T00:05:05.946Z,987.24
2018-09-21T00:06:06.177Z,987.21
2018-09-21T00:07:06.408Z,987.21
2018-09-21T00:08:06.635Z,987.21
2018-09-21T00:09:06.865Z,987.22
2018-09-21T00:10:07.097Z,987.21
2018-09-21T00:11:07.326Z,987.19
2018-09-21T00:12:07.556Z,987.22
2018-09-21T00:13:07.786Z,987.23
2018-09-21T00:14:08.015Z,987.20
2018-09-21T00:15:08.246Z,987.14
2018-09-21T00:16:08.473Z,987.09
2018-09-21T00:17:08.702Z,987.07
2018-09-21T00:18:08.932Z,987.10
2018-09-21T00:19:09.161Z,987.07
2018-09-21T00:20:09.391Z,987.06
2018-09-21T00:21:09.624Z,987.06
2018-09-21T00:22:09.849Z,987.12
2018-09-21T00:23:10.082Z,987.05
2018-09-21T00:24:10.310Z,987.09
2018-09-21T00:25:10.539Z,987.08
2018-09-21T00:26:10.768Z,987.06
2018-09-21T00:27:10.999Z,987.02
2018-09-21T00:28:11.226Z,987.02
2018-09-21T00:29:11.455Z,987.01
2018-09-21T00:30:11.686Z,986.96
2018-09-21T00:31:11.915Z,986.95
2018-09-21T00:32:12.144Z,986.91
2018-09-21T00:33:12.372Z,986.91
2018-09-21T00:34:12.604Z,986.90
2018-09-21T00:35:12.834Z,986.91
2018-09-21T00:36:13.062Z,986.94
2018-09-21T00:37:13.291Z,986.92
2018-09-21T00:38:13.519Z,986.90
2018-09-21T00:39:13.749Z,986.89
2018-09-21T00:40:13.977Z,986.88
2018-09-21T00:41:14.209Z,986.89
2018-09-21T00:42:14.436Z,986.87
2018-09-21T00:43:14.664Z,986.87
2018-09-21T00:44:14.900Z,986.82
2018-09-21T00:45:15.127Z,986.78
2018-09-21T00:46:15.359Z,986.74
2018-09-21T00:47:15.589Z,986.75
2018-09-21T00:48:15.815Z,986.76
2018-09-21T00:49:16.043Z,986.73
2018-09-21T00:50:16.275Z,986.73
2018-09-21T00:51:16.503Z,986.73
2018-09-21T00:52:16.734Z,986.73
2018-09-21T00:53:16.963Z,986.70
2018-09-21T00:54:17.192Z,986.69
2018-09-21T00:55:17.421Z,986.70
2018-09-21T00:56:17.649Z,986.69
2018-09-21T00:57:17.876Z,986.67
2018-09-21T00:58:18.105Z,986.67
2018-09-21T00:59:18.334Z,986.67
2018-09-21T01:00:18.560Z,986.67
2018-09-21T01:01:18.815Z,986.67
2018-09-21T01:02:19.074Z,986.65
2018-09-21T01:03:19.320Z,986.61
2018-09-21T01:04:19.550Z,986.62
2018-09-21T01:05:19.779Z,986.61
2018-09-21T01:06:20.012Z,986.55
2018-09-21T01:07:20.239Z,986.54
2018-09-21T01:08:20.468Z,986.49
2018-09-21T01:09:20.699Z,986.51
2018-09-21T01:10:20.929Z,986.49
2018-09-21T01:11:21.160Z,986.48
2018-09-21T01:12:21.389Z,986.46
2018-09-21T01:13:21.617Z,986.43
2018-09-21T01:14:21.847Z,986.42
2018-09-21T01:15:22.076Z,986.42
2018-09-21T01:16:22.311Z,986.42
2018-09-21T01:17:22.537Z,986.38
2018-09-21T01:18:22.767Z,986.35
2018-09-21T01:19:22.995Z,986.40
2018-09-21T01:20:23.226Z,986.37
2018-09-21T01:21:23.457Z,986.37
2018-09-21T01:22:23.684Z,986.40
2018-09-21T01:23:23.915Z,986.36
2018-09-21T01:24:24.145Z,986.37
2018-09-21T01:25:24.379Z,986.35
2018-09-21T01:26:24.605Z,986.35
2018-09-21T01:27:24.834Z,986.30
2018-09-21T01:28:25.065Z,986.28
2018-09-21T01:29:25.297Z,986.31
2018-09-21T01:30:25.525Z,986.28
2018-09-21T01:31:25.753Z,986.24
2018-09-21T01:32:25.987Z,986.27
2018-09-21T01:33:26.215Z,986.26
2018-09-21T01:34:26.440Z,986.26
2018-09-21T01:35:26.670Z,986.25
2018-09-21T01:36:26.897Z,986.27
2018-09-21T01:37:27.126Z,986.22
2018-09-21T01:38:27.354Z,986.20
2018-09-21T01:39:27.583Z,986.16
2018-09-21T01:40:27.814Z,986.13
2018-09-21T01:41:28.039Z,986.14
2018-09-21T01:42:28.269Z,986.16
2018-09-21T01:43:28.497Z,986.14
2018-09-21T01:44:28.723Z,986.14
2018-09-21T01:45:28.952Z,986.16
2018-09-21T01:46:29.184Z,986.14
2018-09-21T01:47:29.412Z,986.14
2018-09-21T01:48:29.640Z,986.14
2018-09-21T01:49:29.871Z,986.11
2018-09-21T01:50:30.125Z,986.09
2018-09-21T01:51:30.332Z,986.09
2018-09-21T01:52:30.559Z,986.08
2018-09-21T01:53:30.787Z,986.07
2018-09-21T01:54:31.016Z,986.09
2018-09-21T01:55:31.250Z,986.08
2018-09-21T01:56:31.475Z,986.07
2018-09-21T01:57:31.705Z,986.04
2018-09-21T01:58:31.933Z,986.06
2018-09-21T01:59:32.162Z,986.04
2018-09-21T02:00:32.392Z,986.02
2018-09-21T02:01:32.620Z,986.03
2018-09-21T02:02:32.850Z,986.03
2018-09-21T02:03:33.078Z,986.03
2018-09-21T02:04:33.314Z,986.01
2018-09-21T02:05:33.539Z,986.01
2018-09-21T02:06:33.767Z,985.98
2018-09-21T02:07:33.997Z,985.99
2018-09-21T02:08:34.226Z,985.97
2018-09-21T02:09:34.469Z,985.96
2018-09-21T02:10:34.685Z,985.95
2018-09-21T02:11:34.914Z,985.91
2018-09-21T02:12:35.143Z,985.91
2018-09-21T02:13:35.370Z,985.88
2018-09-21T02:14:35.598Z,985.91
2018-09-21T02:15:35.825Z,985.88
2018-09-21T02:16:36.055Z,985.85
2018-09-21T02:17:36.310Z,985.87
2018-09-21T02:18:36.514Z,985.84
2018-09-21T02:19:36.745Z,985.83
2018-09-21T02:20:36.974Z,985.81
2018-09-21T02:21:37.201Z,985.83
2018-09-21T02:22:37.432Z,985.80
2018-09-21T02:23:37.660Z,985.80
2018-09-21T02:24:37.892Z,985.78
2018-09-21T02:25:38.119Z,985.78
2018-09-21T02:26:38.350Z,985.76
2018-09-21T02:27:38.578Z,985.76
2018-09-21T02:28:38.809Z,985.78
2018-09-21T02:29:39.035Z,985.79
2018-09-21T02:30:39.266Z,985.77
2018-09-21T02:31:39.495Z,985.75
2018-09-21T02:32:39.724Z,985.75
2018-09-21T02:33:39.952Z,985.77
2018-09-21T02:34:40.182Z,985.74
2018-09-21T02:35:40.411Z,985.77
2018-09-21T02:36:40.651Z,985.74
2018-09-21T02:37:40.869Z,985.75
2018-09-21T02:38:41.102Z,985.76
2018-09-21T02:39:41.328Z,985.75
2018-09-21T02:40:41.559Z,985.72
2018-09-21T02:41:41.789Z,985.77
2018-09-21T02:42:42.024Z,985.77
2018-09-21T02:43:42.255Z,985.75
2018-09-21T02:44:42.483Z,985.76
2018-09-21T02:45:42.712Z,985.73
2018-09-21T02:46:42.941Z,985.67
2018-09-21T02:47:43.172Z,985.65
2018-09-21T02:48:43.411Z,985.63
2018-09-21T02:49:43.628Z,985.60
2018-09-21T02:50:43.857Z,985.55
2018-09-21T02:51:44.086Z,985.56
2018-09-21T02:52:44.316Z,985.55
2018-09-21T02:53:44.547Z,985.53
2018-09-21T02:54:44.775Z,985.52
2018-09-21T02:55:45.006Z,985.48
2018-09-21T02:56:45.237Z,985.47
2018-09-21T02:57:45.465Z,985.42
2018-09-21T02:58:45.695Z,985.41
2018-09-21T02:59:45.927Z,985.40
2018-09-21T03:00:46.243Z,985.40
2018-09-21T03:01:46.387Z,985.41
2018-09-21T03:02:46.614Z,985.36
2018-09-21T03:03:46.844Z,985.33
2018-09-21T03:04:47.075Z,985.38
2018-09-21T03:05:47.304Z,985.36
2018-09-21T03:06:47.536Z,985.30
2018-09-21T03:07:47.763Z,985.30
2018-09-21T03:08:47.994Z,985.31
2018-09-21T03:09:48.224Z,985.26
2018-09-21T03:10:48.452Z,985.27
2018-09-21T03:11:48.692Z,985.25
2018-09-21T03:12:48.928Z,985.23
2018-09-21T03:13:49.156Z,985.24
2018-09-21T03:14:49.366Z,985.18
2018-09-21T03:15:49.593Z,985.16
2018-09-21T03:16:49.823Z,985.15
2018-09-21T03:17:50.053Z,985.15
2018-09-21T03:18:50.282Z,985.15
2018-09-21T03:19:50.505Z,985.13
2018-09-21T03:20:50.737Z,985.16
2018-09-21T03:21:50.965Z,985.14
2018-09-21T03:22:51.194Z,985.15
2018-09-21T03:23:51.423Z,985.12
2018-09-21T03:24:51.655Z,985.12
2018-09-21T03:25:51.880Z,985.08
2018-09-21T03:26:52.110Z,985.12
2018-09-21T03:27:52.340Z,985.07
2018-09-21T03:28:52.570Z,985.10
2018-09-21T03:29:52.798Z,985.06
2018-09-21T03:30:53.028Z,985.03
2018-09-21T03:31:53.261Z,985.04
2018-09-21T03:32:53.482Z,985.00
2018-09-21T03:33:53.716Z,984.98
2018-09-21T03:34:54.013Z,984.99
2018-09-21T03:35:54.173Z,984.96
2018-09-21T03:36:54.403Z,984.92
2018-09-21T03:37:54.633Z,984.89
2018-09-21T03:38:54.861Z,984.89
2018-09-21T03:39:55.095Z,984.87
2018-09-21T03:40:55.325Z,984.86
2018-09-21T03:41:55.554Z,984.85
2018-09-21T03:42:55.784Z,984.85
2018-09-21T03:43:56.009Z,984.84
2018-09-21T03:44:56.239Z,984.83
2018-09-21T03:45:56.466Z,984.80
2018-09-21T03:46:56.697Z,984.79
2018-09-21T03:47:56.925Z,984.75
2018-09-21T03:48:57.156Z,984.74
2018-09-21T03:49:57.383Z,984.70
2018-09-21T03:50:57.613Z,984.68
2018-09-21T03:51:57.842Z,984.70
2018-09-21T03:52:58.073Z,984.64
2018-09-21T03:53:58.303Z,984.67
2018-09-21T03:54:58.530Z,984.68
2018-09-21T03:55:58.761Z,984.65
2018-09-21T03:56:58.990Z,984.68
2018-09-21T03:57:59.225Z,984.70
2018-09-21T03:58:59.448Z,984.65
2018-09-21T03:59:59.677Z,984.62
2018-09-21T04:00:59.971Z,984.61
2018-09-21T04:02:00.141Z,984.57
2018-09-21T04:03:00.369Z,984.63
2018-09-21T04:04:00.602Z,984.53
2018-09-21T04:05:00.828Z,984.52
2018-09-21T04:06:01.056Z,984.54
2018-09-21T04:07:01.285Z,984.51
2018-09-21T04:08:01.515Z,984.49
2018-09-21T04:09:01.745Z,984.49
2018-09-21T04:10:01.976Z,984.43
2018-09-21T04:11:02.203Z,984.42
2018-09-21T04:12:02.430Z,984.41
2018-09-21T04:13:02.661Z,984.42
2018-09-21T04:14:02.889Z,984.40
2018-09-21T04:15:03.118Z,984.40
2018-09-21T04:16:03.347Z,984.39
2018-09-21T04:17:03.575Z,984.42
2018-09-21T04:18:03.804Z,984.40
2018-09-21T04:19:04.031Z,984.40
2018-09-21T04:20:04.257Z,984.42
2018-09-21T04:21:04.487Z,984.38
2018-09-21T04:22:04.718Z,984.38
2018-09-21T04:23:05.025Z,984.37
2018-09-21T04:24:05.173Z,984.36
2018-09-21T04:25:05.400Z,984.35
2018-09-21T04:26:05.629Z,984.34
2018-09-21T04:27:05.859Z,984.35
2018-09-21T04:28:06.090Z,984.33
2018-09-21T04:29:06.319Z,984.31
2018-09-21T04:30:06.549Z,984.28
2018-09-21T04:31:06.779Z,984.32
2018-09-21T04:32:07.007Z,984.24
2018-09-21T04:33:07.236Z,984.24
2018-09-21T04:34:07.470Z,984.22
2018-09-21T04:35:07.695Z,984.20
2018-09-21T04:36:07.942Z,984.18
2018-09-21T04:37:08.152Z,984.12
2018-09-21T04:38:08.382Z,984.11
2018-09-21T04:39:08.612Z,984.10
2018-09-21T04:40:08.842Z,984.10
2018-09-21T04:41:09.071Z,984.08
2018-09-21T04:42:09.300Z,984.02
2018-09-21T04:43:09.529Z,983.99
2018-09-21T04:44:09.758Z,984.03
2018-09-21T04:45:10.002Z,984.01
2018-09-21T04:46:10.218Z,984.03
2018-09-21T04:47:10.446Z,984.05
2018-09-21T04:48:10.674Z,984.03
2018-09-21T04:49:10.904Z,984.01
2018-09-21T04:50:11.134Z,984.00
2018-09-21T04:51:11.363Z,983.98
2018-09-21T04:52:11.592Z,984.00
2018-09-21T04:53:11.822Z,983.97
2018-09-21T04:54:12.052Z,983.94
2018-09-21T04:55:12.283Z,983.90
2018-09-21T04:56:12.514Z,983.88
2018-09-21T04:57:12.747Z,983.87
2018-09-21T04:58:12.974Z,983.85
2018-09-21T04:59:13.203Z,983.81
2018-09-21T05:00:13.432Z,983.85
2018-09-21T05:01:13.660Z,983.77
2018-09-21T05:02:13.891Z,983.79
2018-09-21T05:03:14.125Z,983.76
2018-09-21T05:04:14.359Z,983.80
2018-09-21T05:05:14.578Z,983.79
2018-09-21T05:06:14.808Z,983.78
2018-09-21T05:07:15.038Z,983.79
2018-09-21T05:08:15.268Z,983.78
2018-09-21T05:09:15.498Z,983.74
2018-09-21T05:10:15.727Z,983.75
2018-09-21T05:11:15.957Z,983.72
2018-09-21T05:12:16.184Z,983.76
2018-09-21T05:13:16.415Z,983.77
2018-09-21T05:14:16.647Z,983.76
2018-09-21T05:15:16.877Z,983.76
2018-09-21T05:16:17.108Z,983.77
2018-09-21T05:17:17.336Z,983.72
2018-09-21T05:18:17.565Z,983.71
2018-09-21T05:19:17.793Z,983.70
2018-09-21T05:20:18.024Z,983.69
2018-09-21T05:21:18.251Z,983.68
2018-09-21T05:22:18.482Z,983.68
2018-09-21T05:23:18.712Z,983.66
2018-09-21T05:24:18.941Z,983.60
2018-09-21T05:25:19.171Z,983.67
2018-09-21T05:26:19.402Z,983.62
2018-09-21T05:27:19.632Z,983.61
2018-09-21T05:28:19.861Z,983.61
2018-09-21T05:29:20.090Z,983.61
2018-09-21T05:30:20.321Z,983.53
2018-09-21T05:31:20.553Z,983.62
2018-09-21T05:32:20.780Z,983.54
2018-09-21T05:33:21.011Z,983.57
2018-09-21T05:34:21.313Z,983.54
2018-09-21T05:35:21.469Z,983.56
2018-09-21T05:36:21.700Z,983.56
2018-09-21T05:37:21.930Z,983.52
2018-09-21T05:38:22.159Z,983.63
2018-09-21T05:39:22.391Z,983.55
2018-09-21T05:40:22.619Z,983.55
2018-09-21T05:41:22.855Z,983.57
2018-09-21T05:42:23.082Z,983.53
2018-09-21T05:43:23.313Z,983.60
2018-09-21T05:44:23.540Z,983.55
2018-09-21T05:45:23.770Z,983.58
2018-09-21T05:46:24.001Z,983.55
2018-09-21T05:47:24.230Z,983.52
2018-09-21T05:48:24.459Z,983.53
2018-09-21T05:49:24.689Z,983.49
2018-09-21T05:50:24.920Z,983.53
2018-09-21T05:51:25.152Z,983.45
2018-09-21T05:52:25.380Z,983.54
2018-09-21T05:53:25.611Z,983.50
2018-09-21T05:54:25.842Z,983.46
2018-09-21T05:55:26.072Z,983.51
2018-09-21T05:56:26.300Z,983.40
2018-09-21T05:57:26.529Z,983.47
2018-09-21T05:58:26.759Z,983.42
2018-09-21T05:59:26.991Z,983.38
2018-09-21T06:00:27.264Z,983.40
2018-09-21T06:01:27.445Z,983.42
2018-09-21T06:02:27.680Z,983.36
2018-09-21T06:03:27.901Z,983.41
2018-09-21T06:04:28.130Z,983.38
2018-09-21T06:05:28.362Z,983.39
2018-09-21T06:06:28.593Z,983.38
2018-09-21T06:07:28.821Z,983.34
2018-09-21T06:08:29.053Z,983.33
2018-09-21T06:09:29.284Z,983.34
2018-09-21T06:10:29.515Z,983.24
2018-09-21T06:11:29.746Z,983.31
2018-09-21T06:12:29.976Z,983.25
2018-09-21T06:13:30.259Z,983.28
2018-09-21T06:14:30.467Z,983.21
2018-09-21T06:15:30.684Z,983.23
2018-09-21T06:16:30.914Z,983.22
2018-09-21T06:17:31.160Z,983.21
2018-09-21T06:18:31.374Z,983.24
2018-09-21T06:19:31.668Z,983.21
2018-09-21T06:20:31.839Z,983.25
2018-09-21T06:21:32.068Z,983.27
2018-09-21T06:22:32.299Z,983.20
2018-09-21T06:23:32.531Z,983.21
2018-09-21T06:24:32.761Z,983.20
2018-09-21T06:25:32.992Z,983.26
2018-09-21T06:26:33.227Z,983.29
2018-09-21T06:27:33.458Z,983.20
2018-09-21T06:28:33.689Z,983.20
2018-09-21T06:29:33.921Z,983.13
2018-09-21T06:30:34.155Z,983.16
2018-09-21T06:31:34.389Z,983.21
2018-09-21T06:32:34.623Z,983.13
2018-09-21T06:33:34.865Z,983.13
2018-09-21T06:34:35.085Z,983.13
2018-09-21T06:35:35.322Z,983.05
2018-09-21T06:36:35.552Z,983.08
2018-09-21T06:37:35.783Z,983.16
2018-09-21T06:38:36.014Z,983.16
2018-09-21T06:39:36.248Z,983.17
2018-09-21T06:40:36.479Z,983.17
2018-09-21T06:41:36.711Z,983.25
2018-09-21T06:42:36.944Z,983.28
2018-09-21T06:43:37.177Z,983.09
2018-09-21T06:44:37.410Z,983.19
2018-09-21T06:45:37.643Z,983.14
2018-09-21T06:46:37.877Z,983.16
2018-09-21T06:47:38.110Z,983.15
2018-09-21T06:48:38.341Z,983.16
2018-09-21T06:49:38.575Z,983.14
2018-09-21T06:50:38.807Z,983.14
2018-09-21T06:51:39.045Z,983.10
2018-09-21T06:52:39.274Z,983.13
2018-09-21T06:53:39.511Z,983.07
2018-09-21T06:54:39.742Z,983.07
2018-09-21T06:55:39.975Z,983.13
2018-09-21T06:56:40.207Z,983.07
2018-09-21T06:57:40.442Z,983.06
2018-09-21T06:58:40.676Z,983.08
2018-09-21T06:59:40.920Z,983.01
2018-09-21T07:00:41.139Z,983.04
2018-09-21T07:01:41.408Z,983.04
2018-09-21T07:02:41.608Z,983.05
2018-09-21T07:03:41.840Z,983.06
2018-09-21T07:04:42.075Z,983.07
2018-09-21T07:05:42.307Z,983.05
2018-09-21T07:06:42.538Z,983.06
2018-09-21T07:07:42.773Z,983.09
2018-09-21T07:08:43.006Z,983.05
2018-09-21T07:09:43.238Z,983.07
2018-09-21T07:10:43.471Z,983.09
2018-09-21T07:11:43.711Z,983.05
2018-09-21T07:12:43.937Z,983.07
2018-09-21T07:13:44.186Z,983.04
2018-09-21T07:14:44.403Z,983.02
2018-09-21T07:15:44.647Z,983.00
2018-09-21T07:16:44.870Z,982.98
2018-09-21T07:17:45.105Z,982.92
2018-09-21T07:18:45.335Z,982.93
2018-09-21T07:19:45.567Z,982.89
2018-09-21T07:20:45.799Z,982.82
2018-09-21T07:21:46.033Z,982.76
2018-09-21T07:22:46.266Z,982.79
2018-09-21T07:23:46.502Z,982.71
2018-09-21T07:24:46.735Z,982.76
2018-09-21T07:25:46.966Z,982.75
2018-09-21T07:26:47.201Z,982.74
2018-09-21T07:27:47.436Z,982.83
2018-09-21T07:28:47.672Z,982.76
2018-09-21T07:29:47.892Z,982.72
2018-09-21T07:30:48.156Z,982.74
2018-09-21T07:31:48.346Z,982.77
2018-09-21T07:32:48.598Z,982.79
2018-09-21T07:33:48.832Z,982.74
2018-09-21T07:34:49.061Z,982.79
2018-09-21T07:35:49.291Z,982.76
2018-09-21T07:36:49.526Z,982.78
2018-09-21T07:37:49.760Z,982.73
2018-09-21T07:38:49.991Z,982.78
2018-09-21T07:39:50.225Z,982.78
2018-09-21T07:40:50.456Z,982.78
2018-09-21T07:41:50.691Z,982.79
2018-09-21T07:42:50.921Z,982.85
2018-09-21T07:43:51.153Z,982.81
2018-09-21T07:44:51.392Z,982.75
2018-09-21T07:45:51.618Z,982.74
2018-09-21T07:46:51.847Z,982.71
2018-09-21T07:47:52.082Z,982.76
2018-09-21T07:48:52.377Z,982.78
2018-09-21T07:49:52.552Z,982.79
2018-09-21T07:50:52.781Z,982.82
2018-09-21T07:51:53.016Z,982.83
2018-09-21T07:52:53.250Z,982.83
2018-09-21T07:53:53.483Z,982.80
2018-09-21T07:54:53.713Z,982.82
2018-09-21T07:55:53.953Z,982.86
2018-09-21T07:56:54.170Z,982.87
2018-09-21T07:57:54.410Z,982.78
2018-09-21T07:58:54.638Z,982.80
2018-09-21T07:59:54.874Z,982.87
2018-09-21T08:00:55.109Z,982.85
2018-09-21T08:01:55.341Z,982.90
2018-09-21T08:02:55.571Z,982.92
2018-09-21T08:03:55.798Z,982.92
2018-09-21T08:04:56.075Z,982.90
2018-09-21T08:05:56.275Z,982.97
2018-09-21T08:06:56.501Z,982.90
2018-09-21T08:07:56.721Z,982.93
2018-09-21T08:08:56.951Z,982.94
2018-09-21T08:09:57.187Z,982.95
2018-09-21T08:10:57.418Z,982.86
2018-09-21T08:11:57.652Z,982.90
2018-09-21T08:12:57.940Z,982.89
2018-09-21T08:13:58.121Z,982.86
2018-09-21T08:14:58.355Z,982.82
2018-09-21T08:15:58.591Z,982.79
2018-09-21T08:16:58.826Z,982.73
2018-09-21T08:17:59.065Z,982.71
2018-09-21T08:18:59.295Z,982.68
2018-09-21T08:19:59.529Z,982.68
2018-09-21T08:20:59.764Z,982.64
2018-09-21T08:21:59.998Z,982.65
2018-09-21T08:23:00.233Z,982.69
2018-09-21T08:24:00.467Z,982.65
2018-09-21T08:25:00.731Z,982.66
2018-09-21T08:26:00.935Z,982.66
2018-09-21T08:27:01.169Z,982.62
2018-09-21T08:28:01.404Z,982.63
2018-09-21T08:29:01.639Z,982.64
2018-09-21T08:30:01.877Z,982.60
2018-09-21T08:31:02.108Z,982.60
2018-09-21T08:32:02.347Z,982.51
2018-09-21T08:33:02.636Z,982.53
2018-09-21T08:34:02.811Z,982.46
2018-09-21T08:35:03.047Z,982.41
2018-09-21T08:36:03.279Z,982.46
2018-09-21T08:37:03.539Z,982.54
2018-09-21T08:38:03.747Z,982.50
2018-09-21T08:39:03.983Z,982.59
2018-09-21T08:40:04.216Z,982.58
2018-09-21T08:41:04.450Z,982.57
2018-09-21T08:42:04.689Z,982.56
2018-09-21T08:43:04.921Z,982.57
2018-09-21T08:44:05.154Z,982.55
2018-09-21T08:45:05.388Z,982.49
2018-09-21T08:46:05.622Z,982.45
2018-09-21T08:47:05.866Z,982.44
2018-09-21T08:48:06.088Z,982.40
2018-09-21T08:49:06.323Z,982.46
2018-09-21T08:50:06.557Z,982.41
2018-09-21T08:51:06.794Z,982.42
2018-09-21T08:52:07.024Z,982.48
2018-09-21T08:53:07.258Z,982.46
2018-09-21T08:54:07.492Z,982.51
2018-09-21T08:55:07.736Z,982.53
2018-09-21T08:56:07.960Z,982.53
2018-09-21T08:57:08.194Z,982.59
2018-09-21T08:58:08.429Z,982.57
2018-09-21T08:59:08.665Z,982.51
2018-09-21T09:00:08.899Z,982.51
2018-09-21T09:01:09.130Z,982.57
2018-09-21T09:02:09.363Z,982.53
2018-09-21T09:03:09.684Z,982.50
2018-09-21T09:04:09.834Z,982.50
2018-09-21T09:05:10.072Z,982.55
2018-09-21T09:06:10.301Z,982.61
2018-09-21T09:07:10.534Z,982.67
2018-09-21T09:08:10.769Z,982.68
2018-09-21T09:09:11.003Z,982.70
2018-09-21T09:10:11.250Z,982.73
2018-09-21T09:11:11.471Z,982.81
2018-09-21T09:12:11.705Z,982.80
2018-09-21T09:13:11.939Z,982.73
2018-09-21T09:14:12.173Z,982.75
2018-09-21T09:15:12.410Z,982.77
2018-09-21T09:16:12.641Z,982.84
2018-09-21T09:17:12.873Z,982.90
2018-09-21T09:18:13.105Z,982.84
2018-09-21T09:19:13.366Z,982.87
2018-09-21T09:20:13.582Z,982.90
2018-09-21T09:21:13.831Z,982.93
2018-09-21T09:22:14.195Z,982.85
2018-09-21T09:23:14.322Z,982.83
2018-09-21T09:24:14.514Z,982.88
2018-09-21T09:25:14.751Z,982.79
2018-09-21T09:26:14.981Z,982.77
2018-09-21T09:27:15.213Z,982.82
2018-09-21T09:28:15.443Z,982.78
2018-09-21T09:29:15.679Z,982.85
2018-09-21T09:30:15.914Z,982.80
2018-09-21T09:31:16.145Z,982.74
2018-09-21T09:32:16.388Z,982.76
2018-09-21T09:33:16.612Z,982.68
2018-09-21T09:34:16.839Z,982.67
2018-09-21T09:35:17.074Z,982.55
2018-09-21T09:36:17.309Z,982.59
2018-09-21T09:37:17.538Z,982.57
2018-09-21T09:38:17.775Z,982.50
2018-09-21T09:39:17.998Z,982.61
2018-09-21T09:40:18.229Z,982.56
2018-09-21T09:41:18.463Z,982.55
2018-09-21T09:42:18.696Z,982.58
2018-09-21T09:43:18.948Z,982.65
2018-09-21T09:44:19.161Z,982.62
2018-09-21T09:45:19.400Z,982.66
2018-09-21T09:46:19.631Z,982.69
2018-09-21T09:47:19.870Z,982.79
2018-09-21T09:48:20.135Z,982.87
2018-09-21T09:49:20.366Z,982.75
2018-09-21T09:50:20.572Z,982.54
2018-09-21T09:51:20.805Z,982.56
2018-09-21T09:52:21.043Z,982.55
2018-09-21T09:53:21.277Z,982.61
2018-09-21T09:54:21.511Z,982.54
2018-09-21T09:55:21.735Z,982.58
2018-09-21T09:56:21.970Z,982.62
2018-09-21T09:57:22.203Z,982.59
2018-09-21T09:58:22.440Z,982.50
2018-09-21T09:59:22.677Z,982.48
2018-09-21T10:00:22.907Z,982.48
2018-09-21T10:01:23.144Z,982.49
2018-09-21T10:02:23.380Z,982.47
2018-09-21T10:03:23.660Z,982.41
2018-09-21T10:04:23.852Z,982.41
2018-09-21T10:05:24.088Z,982.34
2018-09-21T10:06:24.317Z,982.33
2018-09-21T10:07:24.552Z,982.35
2018-09-21T10:08:24.788Z,982.33
2018-09-21T10:09:25.020Z,982.36
2018-09-21T10:10:25.304Z,982.47
2018-09-21T10:11:25.483Z,982.45
2018-09-21T10:12:25.715Z,982.33
2018-09-21T10:13:25.949Z,982.31
2018-09-21T10:14:26.175Z,982.34
2018-09-21T10:15:26.429Z,982.25
2018-09-21T10:16:26.673Z,982.22
2018-09-21T10:17:26.901Z,982.23
2018-09-21T10:18:27.142Z,982.24
2018-09-21T10:19:27.371Z,982.30
2018-09-21T10:20:27.627Z,982.19
2018-09-21T10:21:27.840Z,982.17
2018-09-21T10:22:28.077Z,982.18
2018-09-21T10:23:28.310Z,982.15
2018-09-21T10:24:28.546Z,982.15
2018-09-21T10:25:28.802Z,982.28
2018-09-21T10:26:29.018Z,982.32
2018-09-21T10:27:29.345Z,982.44
2018-09-21T10:28:29.720Z,982.40
2018-09-21T10:29:29.732Z,982.38
2018-09-21T10:30:29.981Z,982.45
2018-09-21T10:31:30.231Z,982.55
2018-09-21T10:32:30.414Z,982.39
2018-09-21T10:33:30.707Z,982.37
2018-09-21T10:34:30.942Z,982.32
2018-09-21T10:35:31.177Z,982.35
2018-09-21T10:36:31.383Z,982.36
2018-09-21T10:37:31.587Z,982.42
2018-09-21T10:38:31.817Z,982.38
2018-09-21T10:39:32.070Z,982.35
2018-09-21T10:40:32.382Z,982.32
2018-09-21T10:41:32.542Z,982.29
2018-09-21T10:42:32.821Z,982.39
2018-09-21T10:43:33.018Z,982.42
2018-09-21T10:44:33.245Z,982.26
2018-09-21T10:45:33.489Z,982.17
2018-09-21T10:46:33.710Z,982.07
2018-09-21T10:47:33.942Z,982.11
2018-09-21T10:48:34.176Z,981.97
2018-09-21T10:49:34.435Z,982.04
2018-09-21T10:50:34.667Z,982.03
2018-09-21T10:51:34.906Z,981.98
2018-09-21T10:52:35.145Z,981.98
2018-09-21T10:53:35.365Z,982.10
2018-09-21T10:54:35.599Z,982.07
2018-09-21T10:55:35.831Z,982.03
2018-09-21T10:56:36.064Z,982.02
2018-09-21T10:57:36.340Z,982.02
2018-09-21T10:58:36.581Z,981.95
2018-09-21T10:59:36.750Z,982.00
2018-09-21T11:00:37.030Z,982.03
2018-09-21T11:01:37.223Z,982.11
2018-09-21T11:02:37.453Z,982.11
2018-09-21T11:03:37.690Z,982.17
2018-09-21T11:04:37.928Z,982.19
2018-09-21T11:05:38.155Z,982.13
2018-09-21T11:06:38.389Z,982.19
2018-09-21T11:07:38.624Z,982.11
2018-09-21T11:08:38.863Z,982.13
2018-09-21T11:09:39.082Z,982.20
2018-09-21T11:10:39.321Z,982.02
2018-09-21T11:11:39.554Z,982.10
2018-09-21T11:12:39.788Z,982.06
2018-09-21T11:13:40.023Z,982.19
2018-09-21T11:14:40.253Z,982.10
2018-09-21T11:15:40.492Z,982.18
2018-09-21T11:16:40.727Z,982.17
2018-09-21T11:17:40.963Z,982.28
2018-09-21T11:18:41.194Z,982.24
2018-09-21T11:19:41.430Z,982.23
2018-09-21T11:20:41.662Z,982.23
2018-09-21T11:21:41.898Z,982.24
2018-09-21T11:22:42.131Z,982.15
2018-09-21T11:23:42.361Z,982.22
2018-09-21T11:24:42.593Z,982.19
2018-09-21T11:25:42.828Z,982.10
2018-09-21T11:26:43.062Z,982.17
2018-09-21T11:27:43.293Z,982.16
2018-09-21T11:28:43.528Z,982.16
2018-09-21T11:29:43.762Z,981.98
2018-09-21T11:30:43.997Z,982.11
2018-09-21T11:31:44.227Z,982.13
2018-09-21T11:32:44.464Z,982.05
2018-09-21T11:33:44.700Z,982.06
2018-09-21T11:34:44.935Z,982.04
2018-09-21T11:35:45.168Z,981.97
2018-09-21T11:36:45.402Z,981.95
2018-09-21T11:37:45.636Z,981.83
2018-09-21T11:38:45.871Z,981.90
2018-09-21T11:39:46.112Z,981.91
2018-09-21T11:40:46.332Z,981.98
2018-09-21T11:41:46.572Z,981.96
2018-09-21T11:42:46.802Z,981.92
2018-09-21T11:43:47.945Z,981.73
2018-09-21T11:44:47.302Z,981.89
2018-09-21T11:45:47.550Z,981.79
2018-09-21T11:46:47.833Z,981.93
2018-09-21T11:47:48.102Z,981.71
2018-09-21T11:48:48.220Z,981.71
2018-09-21T11:49:48.455Z,981.59
2018-09-21T11:50:48.688Z,981.48
2018-09-21T11:51:48.925Z,981.51
2018-09-21T11:52:49.160Z,981.64
2018-09-21T11:53:49.398Z,981.51
2018-09-21T11:54:49.633Z,981.57
2018-09-21T11:55:49.867Z,981.54
2018-09-21T11:56:50.101Z,981.52
2018-09-21T11:57:50.337Z,981.41
2018-09-21T11:58:50.571Z,981.47
2018-09-21T11:59:50.805Z,981.41
2018-09-21T12:00:51.043Z,981.45
2018-09-21T12:01:51.342Z,981.47
2018-09-21T12:02:51.518Z,981.45
2018-09-21T12:03:51.738Z,981.47
2018-09-21T12:04:51.987Z,981.37
2018-09-21T12:05:52.210Z,981.34
2018-09-21T12:06:52.951Z,981.35
2018-09-21T12:07:52.684Z,981.50
2018-09-21T12:08:52.918Z,981.40
2018-09-21T12:09:53.163Z,981.35
2018-09-21T12:10:53.380Z,981.49
2018-09-21T12:11:53.622Z,981.54
2018-09-21T12:12:53.840Z,981.41
2018-09-21T12:13:54.071Z,981.54
2018-09-21T12:14:54.297Z,981.47
2018-09-21T12:15:54.540Z,981.50
2018-09-21T12:16:54.773Z,981.42
2018-09-21T12:17:55.006Z,981.47
2018-09-21T12:18:55.245Z,981.40
2018-09-21T12:19:55.450Z,981.43
2018-09-21T12:20:55.682Z,981.41
2018-09-21T12:21:55.934Z,981.49
2018-09-21T12:22:56.148Z,981.43
2018-09-21T12:23:56.383Z,981.44
2018-09-21T12:24:56.620Z,981.45
2018-09-21T12:25:56.842Z,981.38
2018-09-21T12:26:57.076Z,981.36
2018-09-21T12:27:57.354Z,981.35
2018-09-21T12:28:57.544Z,981.34
2018-09-21T12:29:57.783Z,981.41
2018-09-21T12:30:58.013Z,981.26